首页
METAR-TAF:

METAR-TAF

机场 :

Kit Carson County Airport

伯灵顿, 科羅拉多州, 美国

纬度: 39-14-32N, 经度: 102-16-58W, 海拔: 1285米

当前天气观测

该预报发布于55分钟前的05:53 UTC
风速5节,风向西北
温度 22°C
湿度 50%
气压 1015 hPa
能見度: 16.1公里
天空无云

METAR: KITR 130553Z AUTO 31005KT 10SM CLR 22/11 A2998 RMK AO2 SLP085 T02220111 10356 20206 50013

时间: 00:48 (06:48 UTC)


TAF: 丢失

超过4000个机场的气象观测和天气预报(METAR&TAF报告)。

可查询的气象台以黄色和红色小点在地图上表示。

将鼠标移到小点上方,可查看气象台名称。

然后点击查看天气观测和预报。

如需切换地图:点击带黑十字的绿色按钮放大地图;点击带横线的绿色按钮缩小地图;或者点击绿色箭头查看邻近地区的地图。


METAR-TAF: